Terminal Aerodrome Forecast
Issued by NWS

Home | Current Version | Previous Version | Text Only | Print | Product List | Glossary On
Versions: 1 2 3 4 5 6 7 8 9 10 11 12 13 14 15 16 17 18
767
FTUS41 KBGM 281136
TAFELM
TAF
KELM 281136Z 2812/0112 15005KT P6SM BKN150
     FM281800 16008KT P6SM OVC080
     FM282300 17008KT P6SM OVC040
     FM010400 19010KT 4SM -SHRA BR SCT015 OVC025=

USA.gov is the U.S. government's official web portal to all federal, state and local government web resources and services.